createdAt,value
2023-07-05T00:01:55.150Z,99.90
2023-07-05T00:04:25.636Z,99.90
2023-07-05T00:06:56.380Z,99.90
2023-07-05T00:09:25.483Z,99.90
2023-07-05T00:11:54.515Z,99.90
2023-07-05T00:14:23.727Z,99.90
2023-07-05T00:16:52.761Z,99.90
2023-07-05T00:19:21.664Z,99.90
2023-07-05T00:21:50.797Z,99.90
2023-07-05T00:24:21.260Z,99.90
2023-07-05T00:26:50.367Z,99.90
2023-07-05T00:29:20.147Z,99.90
2023-07-05T00:31:49.262Z,99.90
2023-07-05T00:34:18.422Z,99.90
2023-07-05T00:36:47.433Z,99.90
2023-07-05T00:39:16.442Z,99.60
2023-07-05T00:41:46.790Z,99.30
2023-07-05T00:44:17.082Z,98.70
2023-07-05T00:46:50.309Z,96.20
2023-07-05T00:49:21.819Z,95.10
2023-07-05T00:51:55.383Z,93.70
2023-07-05T00:54:28.179Z,92.50
2023-07-05T00:57:08.002Z,91.90
2023-07-05T00:59:42.326Z,91.20
2023-07-05T01:02:11.970Z,90.00
2023-07-05T01:04:41.014Z,88.70
2023-07-05T01:07:10.170Z,88.80
2023-07-05T01:09:39.179Z,89.70
2023-07-05T01:12:18.014Z,88.90
2023-07-05T01:14:56.511Z,87.40
2023-07-05T01:17:35.409Z,86.70
2023-07-05T01:20:22.467Z,87.50
2023-07-05T01:23:36.866Z,87.70
2023-07-05T01:26:38.148Z,88.60
2023-07-05T01:29:45.770Z,90.40
2023-07-05T01:32:22.026Z,91.30
2023-07-05T01:34:59.080Z,90.90
2023-07-05T01:37:34.912Z,91.70
2023-07-05T01:40:14.027Z,92.20
2023-07-05T01:42:44.605Z,91.40
2023-07-05T01:45:14.958Z,91.00
2023-07-05T01:47:54.241Z,90.80
2023-07-05T01:50:28.997Z,90.10
2023-07-05T01:55:38.027Z,92.70
2023-07-05T01:58:12.582Z,91.40
2023-07-05T02:03:17.254Z,82.90
2023-07-05T02:05:48.740Z,84.00
2023-07-05T02:08:18.770Z,84.50
2023-07-05T02:10:47.877Z,86.70
2023-07-05T02:13:18.519Z,88.60
2023-07-05T02:15:49.987Z,88.00
2023-07-05T02:18:20.709Z,86.50
2023-07-05T02:20:49.764Z,85.90
2023-07-05T02:23:18.852Z,83.20
2023-07-05T02:25:47.949Z,83.90
2023-07-05T02:28:16.946Z,82.40
2023-07-05T02:30:46.040Z,82.10
2023-07-05T02:33:16.203Z,83.10
2023-07-05T02:35:46.668Z,83.90
2023-07-05T02:38:15.663Z,86.40
2023-07-05T02:40:50.283Z,88.00
2023-07-05T02:43:19.227Z,89.20
2023-07-05T02:45:48.205Z,88.60
2023-07-05T02:48:17.316Z,88.10
2023-07-05T02:50:49.047Z,87.60
2023-07-05T02:53:18.330Z,86.60
2023-07-05T02:55:47.260Z,86.30
2023-07-05T02:58:16.295Z,86.20
2023-07-05T03:00:45.892Z,85.40
2023-07-05T03:03:14.950Z,89.00
2023-07-05T03:05:44.029Z,90.50
2023-07-05T03:08:14.405Z,91.60
2023-07-05T03:10:43.480Z,91.80
2023-07-05T03:13:12.443Z,92.40
2023-07-05T03:15:41.493Z,93.80
2023-07-05T03:18:10.437Z,96.80
2023-07-05T03:20:41.221Z,98.70
2023-07-05T03:23:10.370Z,99.10
2023-07-05T03:25:40.796Z,99.90
2023-07-05T03:28:10.415Z,99.90
2023-07-05T03:30:39.562Z,99.90
2023-07-05T03:33:08.497Z,99.90
2023-07-05T03:35:37.730Z,99.90
2023-07-05T03:38:06.764Z,99.90
2023-07-05T03:40:35.819Z,99.90
2023-07-05T03:43:06.343Z,99.90
2023-07-05T03:45:37.614Z,99.90
2023-07-05T03:48:07.085Z,99.90
2023-07-05T03:50:37.446Z,99.90
2023-07-05T03:53:06.562Z,99.90
2023-07-05T03:55:37.450Z,99.90
2023-07-05T03:58:07.906Z,99.90
2023-07-05T04:00:36.981Z,99.90
2023-07-05T04:03:06.290Z,99.90
2023-07-05T04:05:35.518Z,99.90
2023-07-05T04:08:04.696Z,99.90
2023-07-05T04:10:34.913Z,99.90
2023-07-05T04:13:03.967Z,99.90
2023-07-05T04:15:34.495Z,99.90
2023-07-05T04:18:03.607Z,99.90
2023-07-05T04:20:51.163Z,99.90
2023-07-05T04:23:20.342Z,99.90
2023-07-05T04:25:49.581Z,99.90
2023-07-05T04:28:18.742Z,99.90
2023-07-05T04:30:50.047Z,99.90
2023-07-05T04:33:19.467Z,99.90
2023-07-05T04:35:49.062Z,99.90
2023-07-05T04:38:18.329Z,99.90
2023-07-05T04:40:47.582Z,99.90
2023-07-05T04:43:16.924Z,99.90
2023-07-05T04:45:52.882Z,99.90
2023-07-05T04:48:24.075Z,99.90
2023-07-05T04:50:56.641Z,99.90
2023-07-05T04:53:27.736Z,99.90
2023-07-05T04:55:58.685Z,99.90
2023-07-05T04:58:28.473Z,99.90
2023-07-05T05:01:06.058Z,99.90
2023-07-05T05:03:35.489Z,99.90
2023-07-05T05:06:04.797Z,99.90
2023-07-05T05:08:34.001Z,99.90
2023-07-05T05:11:04.755Z,99.90
2023-07-05T05:13:36.386Z,99.90
2023-07-05T05:16:07.862Z,99.90
2023-07-05T05:18:38.760Z,99.90
2023-07-05T05:21:08.144Z,99.90
2023-07-05T05:23:39.875Z,99.90
2023-07-05T05:26:09.173Z,99.90
2023-07-05T05:28:38.527Z,99.90
2023-07-05T05:31:11.537Z,99.90
2023-07-05T05:33:40.937Z,99.90
2023-07-05T05:36:10.120Z,99.90
2023-07-05T05:38:39.561Z,99.90
2023-07-05T05:41:12.268Z,99.90
2023-07-05T05:43:42.138Z,99.90
2023-07-05T05:46:14.912Z,99.90
2023-07-05T05:48:44.306Z,99.90
2023-07-05T05:51:13.422Z,99.90
2023-07-05T05:53:43.123Z,99.90
2023-07-05T05:56:13.060Z,99.90
2023-07-05T05:58:42.190Z,99.90
2023-07-05T06:01:13.758Z,99.90
2023-07-05T06:03:43.135Z,99.90
2023-07-05T06:06:12.260Z,99.90
2023-07-05T06:08:41.544Z,99.90
2023-07-05T06:11:10.675Z,99.90
2023-07-05T06:13:40.035Z,99.90
2023-07-05T06:16:15.032Z,99.90
2023-07-05T06:18:46.141Z,99.90
2023-07-05T06:21:15.399Z,99.90
2023-07-05T06:23:44.655Z,99.90
2023-07-05T06:26:13.855Z,99.90
2023-07-05T06:28:43.062Z,99.90
2023-07-05T06:31:14.166Z,99.90
2023-07-05T06:33:45.008Z,99.90
2023-07-05T06:36:14.225Z,99.90
2023-07-05T06:38:43.324Z,99.90
2023-07-05T06:41:12.582Z,99.90
2023-07-05T06:43:41.884Z,99.90
2023-07-05T06:46:11.062Z,99.90
2023-07-05T06:48:40.920Z,99.90
2023-07-05T06:51:11.647Z,99.90
2023-07-05T06:53:48.686Z,99.90
2023-07-05T06:56:19.312Z,99.90
2023-07-05T06:58:48.967Z,99.90
2023-07-05T07:01:18.308Z,99.90
2023-07-05T07:03:47.476Z,99.90
2023-07-05T07:06:18.216Z,99.90
2023-07-05T07:08:47.282Z,99.90
2023-07-05T07:11:16.570Z,99.90
2023-07-05T07:13:45.813Z,99.90
2023-07-05T07:16:16.589Z,99.90
2023-07-05T07:18:48.445Z,99.90
2023-07-05T07:21:20.718Z,99.90
2023-07-05T07:23:52.602Z,99.90
2023-07-05T07:26:23.259Z,99.90
2023-07-05T07:28:54.359Z,99.90
2023-07-05T07:31:26.267Z,99.90
2023-07-05T07:33:56.133Z,99.90
2023-07-05T07:36:28.484Z,99.90
2023-07-05T07:38:58.094Z,99.90
2023-07-05T07:41:29.096Z,99.90
2023-07-05T07:44:01.272Z,99.90
2023-07-05T07:46:32.090Z,99.90
2023-07-05T07:49:03.327Z,99.90
2023-07-05T07:51:39.558Z,99.90
2023-07-05T07:54:14.470Z,99.90
2023-07-05T07:56:44.812Z,99.90
2023-07-05T07:59:14.721Z,99.90
2023-07-05T08:01:44.179Z,99.90
2023-07-05T08:04:14.374Z,99.90
2023-07-05T08:06:47.497Z,99.90
2023-07-05T08:09:18.472Z,99.90
2023-07-05T08:11:48.381Z,99.70
2023-07-05T08:14:20.474Z,98.80
2023-07-05T08:16:49.869Z,99.90
2023-07-05T08:19:20.666Z,99.90
2023-07-05T08:21:51.399Z,99.90
2023-07-05T08:26:53.279Z,99.90
2023-07-05T08:29:22.378Z,99.90
2023-07-05T08:31:52.008Z,99.90
2023-07-05T08:34:23.441Z,99.00
2023-07-05T08:36:54.596Z,98.00
2023-07-05T08:39:23.741Z,98.50
2023-07-05T08:42:22.210Z,97.50
2023-07-05T08:45:00.798Z,96.90
2023-07-05T08:47:33.968Z,96.50
2023-07-05T08:50:26.652Z,96.00
2023-07-05T08:53:08.048Z,96.00
2023-07-05T08:55:50.986Z,94.40
2023-07-05T08:58:24.781Z,92.60
2023-07-05T09:01:00.212Z,92.10
2023-07-05T09:03:31.593Z,92.20
2023-07-05T09:06:16.604Z,92.30
2023-07-05T09:09:14.510Z,95.40
2023-07-05T09:11:53.145Z,92.70
2023-07-05T09:14:37.735Z,92.40
2023-07-05T09:17:16.794Z,91.80
2023-07-05T09:19:54.148Z,94.30
2023-07-05T09:22:29.165Z,86.90
2023-07-05T09:25:01.079Z,89.10
2023-07-05T09:27:37.538Z,91.80
2023-07-05T09:30:13.080Z,91.50
2023-07-05T09:32:44.487Z,91.90
2023-07-05T09:35:18.885Z,90.80
2023-07-05T09:37:55.944Z,92.00
2023-07-05T09:40:31.583Z,93.60
2023-07-05T09:45:36.821Z,93.30
2023-07-05T09:48:07.962Z,93.70
2023-07-05T09:50:37.914Z,94.10
2023-07-05T09:53:34.860Z,94.20
2023-07-05T09:56:06.065Z,94.60
2023-07-05T09:58:36.226Z,91.90
2023-07-05T10:01:10.912Z,91.80
2023-07-05T10:03:53.783Z,92.60
2023-07-05T10:06:27.006Z,92.10
2023-07-05T10:08:57.527Z,94.50
2023-07-05T10:11:29.408Z,93.60
2023-07-05T10:14:14.228Z,92.50
2023-07-05T10:16:53.162Z,93.20
2023-07-05T10:19:30.245Z,92.30
2023-07-05T10:22:06.207Z,93.70
2023-07-05T10:24:39.449Z,89.50
2023-07-05T10:27:20.998Z,87.90
2023-07-05T10:29:50.725Z,90.20
2023-07-05T10:32:23.678Z,91.70
2023-07-05T10:34:53.752Z,89.50
2023-07-05T10:37:31.475Z,86.10
2023-07-05T10:40:04.361Z,75.90
2023-07-05T10:42:34.811Z,75.20
2023-07-05T10:45:05.560Z,69.90
2023-07-05T10:47:36.652Z,72.50
2023-07-05T10:50:08.601Z,74.50
2023-07-05T10:52:40.482Z,76.70
2023-07-05T10:55:16.087Z,77.30
2023-07-05T10:57:47.903Z,76.40
2023-07-05T11:00:32.572Z,69.80
2023-07-05T11:03:11.901Z,73.60
2023-07-05T11:05:46.438Z,71.50
2023-07-05T11:08:20.969Z,70.10
2023-07-05T11:10:51.317Z,66.30
2023-07-05T11:13:22.034Z,68.30
2023-07-05T11:15:53.129Z,69.40
2023-07-05T11:18:27.529Z,67.30
2023-07-05T11:21:01.418Z,65.90
2023-07-05T11:23:56.634Z,64.00
2023-07-05T11:26:34.582Z,63.30
2023-07-05T11:29:24.573Z,62.10
2023-07-05T11:32:01.938Z,64.00
2023-07-05T11:34:47.872Z,66.50
2023-07-05T11:37:43.500Z,64.00
2023-07-05T11:41:00.997Z,64.50
2023-07-05T11:43:37.607Z,61.40
2023-07-05T11:46:28.515Z,61.70
2023-07-05T11:48:57.748Z,59.00
2023-07-05T11:54:07.830Z,61.40
2023-07-05T11:56:39.675Z,61.10
2023-07-05T11:59:12.741Z,59.90
2023-07-05T12:01:46.416Z,60.70
2023-07-05T12:04:22.825Z,61.90
2023-07-05T12:06:53.948Z,60.20
2023-07-05T12:09:31.303Z,61.30
2023-07-05T12:12:00.661Z,59.70
2023-07-05T12:14:29.700Z,60.80
2023-07-05T12:16:59.051Z,61.20
2023-07-05T12:19:31.720Z,63.00
2023-07-05T12:22:04.686Z,64.00
2023-07-05T12:24:40.670Z,61.60
2023-07-05T12:27:23.188Z,62.10
2023-07-05T12:29:52.967Z,62.90
2023-07-05T12:32:25.506Z,61.80
2023-07-05T12:35:18.383Z,61.90
2023-07-05T12:37:49.806Z,61.60
2023-07-05T12:40:26.589Z,63.20
2023-07-05T12:42:57.905Z,61.70
2023-07-05T12:45:30.074Z,62.00
2023-07-05T12:47:59.946Z,61.90
2023-07-05T12:50:29.957Z,62.70
2023-07-05T12:53:08.740Z,65.00
2023-07-05T12:55:40.580Z,61.80
2023-07-05T12:58:12.367Z,62.60
2023-07-05T13:00:51.906Z,62.60
2023-07-05T13:03:22.143Z,61.60
2023-07-05T13:05:51.418Z,61.70
2023-07-05T13:08:22.312Z,65.30
2023-07-05T13:10:53.684Z,62.00
2023-07-05T13:13:30.824Z,64.70
2023-07-05T13:16:19.118Z,62.50
2023-07-05T13:19:04.808Z,63.20
2023-07-05T13:21:42.363Z,61.90
2023-07-05T13:24:37.199Z,62.50
2023-07-05T13:27:16.796Z,61.30
2023-07-05T13:29:46.092Z,61.80
2023-07-05T13:32:26.545Z,58.40
2023-07-05T13:34:55.842Z,60.90
2023-07-05T13:37:28.718Z,60.20
2023-07-05T13:40:08.762Z,61.30
2023-07-05T13:42:38.030Z,59.40
2023-07-05T13:45:15.244Z,60.30
2023-07-05T13:47:44.806Z,57.90
2023-07-05T13:50:14.953Z,57.20
2023-07-05T13:52:46.145Z,59.00
2023-07-05T13:55:21.999Z,55.90
2023-07-05T13:57:55.881Z,58.00
2023-07-05T14:00:27.925Z,57.70
2023-07-05T14:02:58.924Z,58.40
2023-07-05T14:05:30.560Z,61.80
2023-07-05T14:08:01.726Z,60.30
2023-07-05T14:10:32.846Z,57.90
2023-07-05T14:13:03.233Z,58.20
2023-07-05T14:15:38.153Z,59.20
2023-07-05T14:18:08.175Z,58.90
2023-07-05T14:20:39.445Z,59.00
2023-07-05T14:23:15.950Z,56.20
2023-07-05T14:25:47.900Z,58.60
2023-07-05T14:28:17.133Z,58.90
2023-07-05T14:30:47.683Z,56.80
2023-07-05T14:33:20.651Z,57.10
2023-07-05T14:35:49.862Z,57.80
2023-07-05T14:38:18.892Z,55.80
2023-07-05T14:40:49.684Z,56.70
2023-07-05T14:43:19.012Z,56.50
2023-07-05T14:45:50.042Z,54.90
2023-07-05T14:48:19.110Z,54.20
2023-07-05T14:50:48.372Z,54.10
2023-07-05T14:53:19.861Z,55.50
2023-07-05T14:55:50.604Z,54.50
2023-07-05T14:58:20.196Z,56.30
2023-07-05T15:00:49.587Z,58.30
2023-07-05T15:03:27.790Z,58.10
2023-07-05T15:05:58.355Z,54.00
2023-07-05T15:08:28.806Z,51.50
2023-07-05T15:10:59.650Z,52.90
2023-07-05T15:13:32.461Z,52.40
2023-07-05T15:16:05.140Z,50.60
2023-07-05T15:18:34.706Z,48.80
2023-07-05T15:21:04.516Z,49.40
2023-07-05T15:23:33.729Z,48.60
2023-07-05T15:26:05.930Z,49.40
2023-07-05T15:28:35.078Z,49.30
2023-07-05T15:31:04.319Z,50.30
2023-07-05T15:33:33.500Z,47.60
2023-07-05T15:36:02.681Z,47.50
2023-07-05T15:38:31.793Z,47.50
2023-07-05T15:41:05.170Z,47.40
2023-07-05T15:43:37.192Z,47.90
2023-07-05T15:46:11.402Z,49.00
2023-07-05T15:48:42.200Z,47.90
2023-07-05T15:51:12.116Z,48.30
2023-07-05T15:53:41.370Z,48.10
2023-07-05T15:56:12.150Z,47.40
2023-07-05T15:58:44.814Z,47.30
2023-07-05T16:01:25.146Z,48.60
2023-07-05T16:03:54.610Z,48.10
2023-07-05T16:06:23.859Z,48.20
2023-07-05T16:08:52.945Z,46.10
2023-07-05T16:11:24.220Z,46.30
2023-07-05T16:13:53.436Z,48.00
2023-07-05T16:16:22.451Z,44.40
2023-07-05T16:18:52.047Z,45.80
2023-07-05T16:21:21.162Z,45.80
2023-07-05T16:23:50.283Z,45.70
2023-07-05T16:26:19.607Z,44.90
2023-07-05T16:28:51.437Z,45.60
2023-07-05T16:31:20.649Z,45.00
2023-07-05T16:33:49.766Z,45.40
2023-07-05T16:36:19.394Z,44.50
2023-07-05T16:38:49.140Z,45.90
2023-07-05T16:41:18.522Z,46.40
2023-07-05T16:43:47.571Z,46.90
2023-07-05T16:46:19.251Z,46.60
2023-07-05T16:48:48.739Z,46.60
2023-07-05T16:51:18.700Z,47.00
2023-07-05T16:53:47.760Z,47.80
2023-07-05T16:56:16.830Z,46.10
2023-07-05T16:58:45.836Z,46.60
2023-07-05T17:01:15.574Z,47.10
2023-07-05T17:03:46.460Z,48.50
2023-07-05T17:06:16.420Z,48.70
2023-07-05T17:08:46.238Z,48.90
2023-07-05T17:11:16.181Z,50.60
2023-07-05T17:13:45.393Z,51.50
2023-07-05T17:16:16.434Z,52.80
2023-07-05T17:18:47.023Z,56.10
2023-07-05T17:21:17.933Z,57.70
2023-07-05T17:23:47.100Z,59.60
2023-07-05T17:26:16.419Z,60.60
2023-07-05T17:28:47.307Z,62.40
2023-07-05T17:31:18.853Z,64.10
2023-07-05T17:33:50.048Z,65.00
2023-07-05T17:36:22.031Z,66.60
2023-07-05T17:38:52.674Z,68.70
2023-07-05T17:41:23.372Z,68.70
2023-07-05T17:43:52.439Z,70.60
2023-07-05T17:46:24.573Z,71.50
2023-07-05T17:48:56.832Z,73.30
2023-07-05T17:51:27.309Z,75.50
2023-07-05T17:53:57.112Z,75.50
2023-07-05T17:56:26.833Z,74.90
2023-07-05T17:58:57.214Z,74.60
2023-07-05T18:01:29.241Z,74.40
2023-07-05T18:04:02.466Z,75.70
2023-07-05T18:06:31.552Z,76.80
2023-07-05T18:09:01.416Z,77.30
2023-07-05T18:11:30.623Z,78.10
2023-07-05T18:13:59.691Z,77.50
2023-07-05T18:16:30.584Z,78.20
2023-07-05T18:19:01.303Z,79.10
2023-07-05T18:21:35.525Z,80.60
2023-07-05T18:24:05.261Z,80.40
2023-07-05T18:26:34.286Z,81.10
2023-07-05T18:29:03.516Z,82.10
2023-07-05T18:31:32.884Z,82.90
2023-07-05T18:34:06.292Z,83.10
2023-07-05T18:36:35.614Z,85.30
2023-07-05T18:39:06.269Z,86.70
2023-07-05T18:41:35.230Z,88.00
2023-07-05T18:44:04.621Z,89.80
2023-07-05T18:46:33.771Z,90.50
2023-07-05T18:49:04.240Z,90.80
2023-07-05T18:51:33.390Z,91.10
2023-07-05T18:54:02.689Z,91.70
2023-07-05T18:56:32.020Z,92.50
2023-07-05T18:59:01.242Z,93.40
2023-07-05T19:01:30.367Z,92.90
2023-07-05T19:03:59.530Z,94.00
2023-07-05T19:06:31.932Z,94.70
2023-07-05T19:09:01.014Z,94.70
2023-07-05T19:11:32.110Z,94.40
2023-07-05T19:14:01.363Z,94.80
2023-07-05T19:16:30.640Z,95.70
2023-07-05T19:19:00.390Z,96.20
2023-07-05T19:21:30.850Z,96.40
2023-07-05T19:24:00.087Z,96.80
2023-07-05T19:26:29.330Z,96.40
2023-07-05T19:29:00.492Z,97.50
2023-07-05T19:31:30.563Z,97.60
2023-07-05T19:33:59.670Z,97.40
2023-07-05T19:36:30.297Z,98.00
2023-07-05T19:38:59.562Z,97.90
2023-07-05T19:41:29.810Z,97.60
2023-07-05T19:43:59.017Z,97.80
2023-07-05T19:46:28.493Z,97.90
2023-07-05T19:49:03.636Z,98.10
2023-07-05T19:51:34.247Z,98.00
2023-07-05T19:54:03.423Z,98.10
2023-07-05T19:56:32.472Z,98.20
2023-07-05T19:59:01.891Z,98.30
2023-07-05T20:01:31.037Z,98.40
2023-07-05T20:04:02.284Z,98.80
2023-07-05T20:06:32.270Z,98.60
2023-07-05T20:09:04.247Z,99.00
2023-07-05T20:11:33.518Z,99.30
2023-07-05T20:14:04.786Z,99.70
2023-07-05T20:16:34.123Z,99.90
2023-07-05T20:19:03.449Z,99.90
2023-07-05T20:21:32.518Z,99.90
2023-07-05T20:24:03.095Z,99.90
2023-07-05T20:26:32.411Z,99.90
2023-07-05T20:29:01.632Z,99.90
2023-07-05T20:31:30.948Z,99.90
2023-07-05T20:34:00.143Z,99.90
2023-07-05T20:36:29.373Z,99.90
2023-07-05T20:38:58.763Z,99.90
2023-07-05T20:41:29.681Z,99.90
2023-07-05T20:43:58.794Z,99.90
2023-07-05T20:46:29.024Z,99.90
2023-07-05T20:48:59.045Z,99.90
2023-07-05T20:51:32.907Z,99.90
2023-07-05T20:54:03.847Z,99.90
2023-07-05T20:56:34.462Z,99.90
2023-07-05T20:59:03.577Z,99.90
2023-07-05T21:01:33.306Z,99.90
2023-07-05T21:04:03.747Z,99.90
2023-07-05T21:06:33.731Z,99.90
2023-07-05T21:09:06.557Z,99.90
2023-07-05T21:11:37.829Z,99.90
2023-07-05T21:14:08.182Z,99.90
2023-07-05T21:16:37.282Z,99.80
2023-07-05T21:19:07.967Z,99.70
2023-07-05T21:21:40.271Z,99.50
2023-07-05T21:24:09.976Z,99.70
2023-07-05T21:26:41.006Z,99.80
2023-07-05T21:29:10.700Z,99.70
2023-07-05T21:31:40.741Z,99.80
2023-07-05T21:34:09.974Z,99.30
2023-07-05T21:36:42.235Z,99.60
2023-07-05T21:39:11.878Z,99.50
2023-07-05T21:41:42.323Z,99.60
2023-07-05T21:44:12.628Z,99.40
2023-07-05T21:46:42.496Z,99.20
2023-07-05T21:49:11.715Z,99.50
2023-07-05T21:51:46.017Z,99.60
2023-07-05T21:54:15.131Z,99.80
2023-07-05T21:56:45.671Z,99.90
2023-07-05T21:59:14.762Z,99.90
2023-07-05T22:01:43.865Z,99.90
2023-07-05T22:04:12.950Z,99.90
2023-07-05T22:06:42.018Z,99.90
2023-07-05T22:09:11.877Z,99.90
2023-07-05T22:11:42.201Z,99.90
2023-07-05T22:14:12.952Z,99.90
2023-07-05T22:16:44.134Z,99.90
2023-07-05T22:19:14.752Z,99.90
2023-07-05T22:21:50.624Z,99.90
2023-07-05T22:24:20.130Z,99.90
2023-07-05T22:26:49.589Z,99.90
2023-07-05T22:29:23.190Z,99.90
2023-07-05T22:31:52.363Z,99.90
2023-07-05T22:34:21.373Z,99.90
2023-07-05T22:36:54.063Z,99.90
2023-07-05T22:39:23.217Z,99.90
2023-07-05T22:41:52.245Z,99.90
2023-07-05T22:44:23.524Z,99.90
2023-07-05T22:46:52.524Z,99.80
2023-07-05T22:49:21.636Z,98.90
2023-07-05T22:51:50.700Z,98.30
2023-07-05T22:54:19.762Z,98.50
2023-07-05T22:56:48.672Z,98.40
2023-07-05T22:59:17.759Z,96.10
2023-07-05T23:01:48.867Z,95.80
2023-07-05T23:04:18.758Z,97.30
2023-07-05T23:06:47.743Z,98.10
2023-07-05T23:09:16.705Z,99.30
2023-07-05T23:11:45.935Z,99.90
2023-07-05T23:14:15.445Z,99.90
2023-07-05T23:16:46.832Z,99.90
2023-07-05T23:19:18.014Z,99.90
2023-07-05T23:21:47.117Z,99.90
2023-07-05T23:24:16.727Z,99.90
2023-07-05T23:26:45.757Z,99.90
2023-07-05T23:29:16.247Z,99.90
2023-07-05T23:31:45.754Z,99.80
2023-07-05T23:34:16.732Z,99.90
2023-07-05T23:36:45.920Z,99.90
2023-07-05T23:39:15.008Z,99.90
2023-07-05T23:41:46.304Z,99.90
2023-07-05T23:44:16.532Z,99.90
2023-07-05T23:46:45.775Z,99.90
2023-07-05T23:49:14.836Z,99.90
2023-07-05T23:51:45.476Z,99.90
2023-07-05T23:54:14.544Z,99.90
2023-07-05T23:56:48.750Z,99.90
2023-07-05T23:59:19.813Z,99.90
